Time;durP1;ratioP1;P1;durP2;ratioP2;P2;SDS_P1;SDS_P2;PMS_P1;PMS_P2;Temp;Humidity;BMP_temperature;BMP_pressure;BME280_temperature;BME280_humidity;BME280_pressure;Samples;Min_cycle;Max_cycle;Signal;HPM_P1;HPM_P2
2020/12/15 00:01:22;;;;;;;;;14.50;13.50;;;;;13.52;53.52;98700.31;4839795;28;102649;-77
2020/12/15 00:03:49;;;;;;;;;13.00;11.25;;;;;13.49;53.73;98693.44;4821196;28;110589;-77
2020/12/15 00:06:16;;;;;;;;;11.75;11.50;;;;;13.48;53.41;98707.22;4839433;28;103711;-77
2020/12/15 00:08:43;;;;;;;;;14.75;13.50;;;;;13.47;53.70;98705.53;4841256;28;102567;-76
2020/12/15 00:11:16;;;;;;;;;16.25;14.50;;;;;13.46;53.11;98699.31;4846757;28;103857;-77
2020/12/15 00:13:44;;;;;;;;;13.50;11.25;;;;;13.44;53.62;98689.69;4836750;28;104179;-77
2020/12/15 00:16:14;;;;;;;;;18.75;14.00;;;;;13.42;53.65;98681.75;4843546;28;102591;-77
2020/12/15 00:18:40;;;;;;;;;12.50;11.50;;;;;13.40;53.46;98689.31;4841761;28;102399;-77
2020/12/15 00:21:07;;;;;;;;;14.00;11.75;;;;;13.39;53.21;98683.03;4844362;28;102393;-77
2020/12/15 00:23:34;;;;;;;;;12.00;10.50;;;;;13.37;53.38;98695.97;4837228;28;104175;-77
2020/12/15 00:26:00;;;;;;;;;16.25;14.00;;;;;13.36;52.82;98690.78;4859617;28;102163;-77
2020/12/15 00:28:28;;;;;;;;;14.50;12.50;;;;;13.34;52.98;98688.28;4840473;28;102864;-77
2020/12/15 00:30:55;;;;;;;;;14.00;11.00;;;;;13.32;53.63;98676.81;4843280;28;102931;-77
2020/12/15 00:33:22;;;;;;;;;14.25;12.50;;;;;13.31;53.34;98685.16;4843398;28;104073;-77
2020/12/15 00:35:48;;;;;;;;;10.25;9.25;;;;;13.30;53.07;98688.91;4841621;28;103763;-77
2020/12/15 00:38:15;;;;;;;;;12.75;11.00;;;;;13.28;53.01;98697.28;4840183;28;102589;-77
2020/12/15 00:40:54;;;;;;;;;14.25;11.50;;;;;13.27;53.57;98692.91;4836311;28;103306;-77
2020/12/15 00:43:21;;;;;;;;;9.75;9.50;;;;;13.26;53.09;98693.13;4845604;28;104236;-77
2020/12/15 00:45:48;;;;;;;;;15.50;12.00;;;;;13.26;53.63;98690.41;4843628;28;102920;-77
2020/12/15 00:48:15;;;;;;;;;12.00;10.25;;;;;13.25;53.43;98680.59;4841046;28;102591;-77
2020/12/15 00:50:41;;;;;;;;;12.50;10.00;;;;;13.22;53.81;98687.31;4839406;28;102168;-77
2020/12/15 00:53:08;;;;;;;;;16.75;12.50;;;;;13.22;53.43;98684.59;4837243;28;104014;-77
2020/12/15 00:55:35;;;;;;;;;13.25;11.50;;;;;13.19;53.82;98698.56;4834764;28;102847;-77
2020/12/15 00:58:01;;;;;;;;;10.75;9.00;;;;;13.18;52.81;98680.63;4839863;28;103604;-77
2020/12/15 01:00:28;;;;;;;;;13.75;12.00;;;;;13.16;53.59;98690.88;4836408;28;102156;-77
2020/12/15 01:02:55;;;;;;;;;11.25;10.00;;;;;13.16;53.27;98690.03;4838643;28;104566;-77
2020/12/15 01:05:21;;;;;;;;;12.50;10.00;;;;;13.15;53.33;98704.69;4846144;28;102450;-77
2020/12/15 01:07:48;;;;;;;;;10.00;10.00;;;;;13.14;53.34;98711.97;4839744;28;103934;-77
2020/12/15 01:10:15;;;;;;;;;13.25;11.25;;;;;13.11;53.85;98709.69;4838494;28;102869;-77
2020/12/15 01:12:41;;;;;;;;;12.75;10.25;;;;;13.11;53.88;98714.28;4836780;28;104245;-77
2020/12/15 01:15:08;;;;;;;;;15.25;11.75;;;;;13.11;53.57;98719.69;4836656;28;103021;-77
2020/12/15 01:17:35;;;;;;;;;13.25;12.50;;;;;13.07;53.37;98707.56;4836641;28;102058;-77
2020/12/15 01:20:02;;;;;;;;;12.25;10.50;;;;;13.08;53.80;98709.25;4841026;28;102677;-76
2020/12/15 01:22:28;;;;;;;;;10.50;10.50;;;;;13.07;53.38;98705.69;4842013;28;104048;-77
2020/12/15 01:24:55;;;;;;;;;13.50;13.00;;;;;13.07;53.88;98710.28;4830423;28;103854;-77
2020/12/15 01:27:22;;;;;;;;;10.25;8.75;;;;;13.05;53.92;98699.66;4841324;28;102443;-77
2020/12/15 01:29:48;;;;;;;;;12.50;10.50;;;;;13.03;53.19;98709.88;4841837;28;103734;-77
2020/12/15 01:32:15;;;;;;;;;8.75;8.75;;;;;13.02;53.07;98708.22;4842620;28;104184;-77
2020/12/15 01:34:42;;;;;;;;;13.00;10.50;;;;;13.01;53.00;98706.56;4842258;28;104303;-77
2020/12/15 01:37:08;;;;;;;;;11.00;11.00;;;;;13.00;52.85;98702.19;4844580;28;104396;-77
2020/12/15 01:39:35;;;;;;;;;9.00;8.50;;;;;12.99;53.29;98697.78;4836512;28;102958;-77
2020/12/15 01:42:02;;;;;;;;;12.50;10.25;;;;;12.98;53.76;98696.13;4840108;28;104250;-77
2020/12/15 01:44:28;;;;;;;;;15.25;10.50;;;;;12.97;53.72;98694.44;4842526;28;103275;-77
2020/12/15 01:46:55;;;;;;;;;13.00;10.75;;;;;12.95;53.36;98697.41;4840365;28;102612;-76
2020/12/15 01:49:22;;;;;;;;;10.00;10.00;;;;;12.94;53.90;98692.16;4833334;28;103071;-77
2020/12/15 01:51:48;;;;;;;;;11.75;11.75;;;;;12.93;52.85;98690.50;4839763;28;108645;-77
2020/12/15 01:54:15;;;;;;;;;13.50;10.25;;;;;12.93;53.27;98685.91;4842429;28;103034;-77
2020/12/15 01:56:42;;;;;;;;;14.00;11.75;;;;;12.93;53.97;98682.34;4839988;28;103373;-77
2020/12/15 01:59:08;;;;;;;;;13.75;12.50;;;;;12.90;53.16;98689.06;4842740;28;102453;-77
2020/12/15 02:01:42;;;;;;;;;11.75;9.50;;;;;12.89;52.95;98675.69;4839330;28;104032;-77
2020/12/15 02:04:10;;;;;;;;;14.25;11.25;;;;;12.89;52.99;98675.69;4817911;28;102583;-77
2020/12/15 02:06:37;;;;;;;;;11.25;9.25;;;;;12.85;53.26;98672.56;4840297;28;103476;-77
2020/12/15 02:09:07;;;;;;;;;9.75;9.00;;;;;12.85;52.94;98672.56;4836935;28;102325;-77
2020/12/15 02:11:43;;;;;;;;;13.00;10.75;;;;;12.85;53.33;98672.56;4833896;28;103849;-77
2020/12/15 02:14:11;;;;;;;;;13.75;10.25;;;;;12.85;53.93;98669.03;4839248;28;103291;-77
2020/12/15 02:16:40;;;;;;;;;11.75;10.00;;;;;12.84;53.64;98679.03;4858195;28;102315;-77
2020/12/15 02:19:15;;;;;;;;;9.50;9.50;;;;;12.83;53.76;98671.13;4842156;28;102387;-77
2020/12/15 02:21:54;;;;;;;;;9.75;7.00;;;;;12.81;53.31;98663.19;4840038;28;103827;-77
2020/12/15 02:24:22;;;;;;;;;9.25;8.75;;;;;12.80;53.52;98655.25;4839211;28;102588;-77
2020/12/15 02:26:51;;;;;;;;;11.25;10.25;;;;;12.79;53.14;98665.28;4845070;28;102311;-77
2020/12/15 02:29:20;;;;;;;;;14.50;10.75;;;;;12.79;53.52;98664.44;4842039;28;104395;-77
2020/12/15 02:31:48;;;;;;;;;12.25;10.25;;;;;12.77;53.58;98661.97;4835282;28;103609;-77
2020/12/15 02:34:17;;;;;;;;;10.25;7.75;;;;;12.77;53.21;98663.84;4845210;28;102628;-77
2020/12/15 02:36:46;;;;;;;;;13.00;11.75;;;;;12.75;53.40;98672.19;4828939;28;102489;-77
2020/12/15 02:39:16;;;;;;;;;9.50;9.00;;;;;12.75;53.85;98657.78;4839047;28;104722;-77
2020/12/15 02:41:57;;;;;;;;;12.50;10.50;;;;;12.74;53.96;98667.00;4834468;28;107597;-77
2020/12/15 02:44:25;;;;;;;;;10.00;8.00;;;;;12.74;53.69;98664.28;4838440;28;103845;-77
2020/12/15 02:46:51;;;;;;;;;14.25;11.50;;;;;12.72;53.63;98664.47;4836691;28;103812;-77
2020/12/15 02:49:18;;;;;;;;;5.50;5.00;;;;;12.71;53.10;98668.22;4832334;28;102569;-77
2020/12/15 02:51:48;;;;;;;;;7.00;7.00;;;;;12.71;53.24;98661.97;4841934;28;104086;-77
2020/12/15 02:54:16;;;;;;;;;9.25;8.50;;;;;12.69;53.57;98664.91;4832564;28;102645;-77
2020/12/15 02:56:42;;;;;;;;;13.00;10.25;;;;;12.67;53.91;98667.00;4833609;28;104008;-77
2020/12/15 02:59:09;;;;;;;;;12.50;8.75;;;;;12.68;53.71;98656.97;4848444;28;102654;-77
2020/12/15 03:01:40;;;;;;;;;11.75;8.50;;;;;12.67;53.69;98667.00;4841375;28;104093;-77
2020/12/15 03:04:08;;;;;;;;;14.00;11.75;;;;;12.66;53.82;98669.91;4834806;28;102994;-76
2020/12/15 03:06:35;;;;;;;;;9.00;8.25;;;;;12.66;53.47;98664.50;4838911;28;103050;-77
2020/12/15 03:09:06;;;;;;;;;7.50;7.00;;;;;12.65;54.04;98666.41;4842481;28;102472;-77
2020/12/15 03:11:33;;;;;;;;;12.25;9.50;;;;;12.64;53.10;98662.00;4846834;28;104056;-77
2020/12/15 03:14:01;;;;;;;;;7.50;7.00;;;;;12.63;53.67;98659.50;4843726;28;102410;-77
2020/12/15 03:16:28;;;;;;;;;12.25;8.50;;;;;12.62;53.81;98652.41;4835736;28;104388;-77
2020/12/15 03:18:55;;;;;;;;;9.25;8.25;;;;;12.61;53.32;98665.13;4835064;28;103468;-76
2020/12/15 03:21:23;;;;;;;;;10.50;8.75;;;;;12.60;53.68;98666.19;4850913;28;104127;-77
2020/12/15 03:23:51;;;;;;;;;7.25;7.25;;;;;12.61;53.71;98661.59;4842837;28;102547;-77
2020/12/15 03:26:18;;;;;;;;;11.75;9.75;;;;;12.59;53.59;98664.53;4834055;28;102599;-77
2020/12/15 03:28:44;;;;;;;;;11.50;7.25;;;;;12.57;53.04;98663.03;4843587;28;103319;-77
2020/12/15 03:31:11;;;;;;;;;15.00;9.00;;;;;12.56;53.24;98659.53;4838909;28;104077;-77
2020/12/15 03:33:38;;;;;;;;;8.00;8.00;;;;;12.57;53.57;98660.34;4838200;28;103646;-77
2020/12/15 03:36:05;;;;;;;;;11.50;9.50;;;;;12.55;53.05;98662.44;4840090;28;102725;-77
2020/12/15 03:38:32;;;;;;;;;12.50;9.50;;;;;12.55;53.03;98657.84;4846366;28;102504;-77
2020/12/15 03:40:58;;;;;;;;;9.00;8.25;;;;;12.52;53.25;98667.22;4841904;28;106205;-77
2020/12/15 03:43:25;;;;;;;;;8.75;8.75;;;;;12.52;53.98;98659.09;4843062;28;102710;-77
2020/12/15 03:45:52;;;;;;;;;10.75;7.75;;;;;12.52;53.19;98658.25;4839817;28;104903;-77
2020/12/15 03:48:18;;;;;;;;;10.50;9.75;;;;;12.50;53.75;98658.50;4841236;28;102589;-77
2020/12/15 03:50:45;;;;;;;;;7.00;7.00;;;;;12.50;53.36;98654.94;4838379;28;104290;-77
2020/12/15 03:53:12;;;;;;;;;13.50;9.25;;;;;12.49;53.49;98654.09;4838961;28;102525;-77
2020/12/15 03:55:38;;;;;;;;;11.00;8.00;;;;;12.48;53.60;98652.44;4831439;28;107495;-78
2020/12/15 03:58:05;;;;;;;;;11.25;8.75;;;;;12.48;53.63;98641.59;4844356;28;103510;-78
2020/12/15 04:00:32;;;;;;;;;10.25;9.25;;;;;12.48;53.01;98640.75;4839833;28;104465;-78
2020/12/15 04:02:58;;;;;;;;;9.25;8.00;;;;;12.46;53.29;98638.25;4839431;28;102657;-78
2020/12/15 04:05:25;;;;;;;;;11.00;7.00;;;;;12.47;53.16;98645.34;4842744;28;102166;-78
2020/12/15 04:07:51;;;;;;;;;8.50;8.00;;;;;12.46;53.08;98643.69;4840004;28;102419;-78
2020/12/15 04:10:18;;;;;;;;;13.00;7.75;;;;;12.46;53.25;98646.41;4839807;28;108953;-78
2020/12/15 04:12:51;;;;;;;;;9.25;7.75;;;;;12.45;53.32;98647.44;4841773;28;102546;-78
2020/12/15 04:15:17;;;;;;;;;7.00;4.00;;;;;12.44;53.81;98656.63;4838802;28;102561;-78
2020/12/15 04:17:44;;;;;;;;;9.25;7.50;;;;;12.44;53.14;98659.31;4835567;28;104210;-78
2020/12/15 04:20:11;;;;;;;;;8.50;8.00;;;;;12.44;53.73;98653.91;4844187;28;104261;-78
2020/12/15 04:22:38;;;;;;;;;13.25;8.75;;;;;12.43;52.94;98649.53;4843329;28;102241;-78
2020/12/15 04:25:05;;;;;;;;;8.25;8.25;;;;;12.42;53.01;98650.59;4833793;28;103085;-79
2020/12/15 04:27:32;;;;;;;;;11.00;9.25;;;;;12.40;53.32;98652.66;4836291;28;102492;-78
2020/12/15 04:29:59;;;;;;;;;8.75;7.25;;;;;12.39;53.78;98653.69;4838917;28;104274;-79
2020/12/15 04:32:25;;;;;;;;;10.25;7.25;;;;;12.40;53.45;98668.09;4837834;28;103658;-78
2020/12/15 04:34:52;;;;;;;;;9.50;8.00;;;;;12.38;53.38;98662.88;4841559;28;103751;-78
2020/12/15 04:37:19;;;;;;;;;9.50;7.00;;;;;12.36;53.35;98661.44;4848151;28;102667;-78
2020/12/15 04:39:45;;;;;;;;;8.25;6.00;;;;;12.37;53.73;98672.06;4834981;28;104049;-78
2020/12/15 04:42:13;;;;;;;;;7.75;6.75;;;;;12.37;53.29;98665.81;4838953;28;104039;-78
2020/12/15 04:44:40;;;;;;;;;11.75;10.75;;;;;12.36;53.75;98659.56;4844772;28;102489;-78
2020/12/15 04:47:19;;;;;;;;;10.50;10.25;;;;;12.35;53.17;98655.16;4834563;28;102728;-78
2020/12/15 04:50:09;;;;;;;;;8.75;7.75;;;;;12.35;53.39;98665.19;4833347;28;104098;-79
2020/12/15 04:52:56;;;;;;;;;8.50;8.00;;;;;12.34;53.58;98661.63;4784334;28;102544;-78
2020/12/15 04:55:26;;;;;;;;;7.00;6.75;;;;;12.33;53.65;98660.00;4843382;28;103231;-78
2020/12/15 04:57:58;;;;;;;;;11.50;8.00;;;;;12.34;53.05;98663.50;4834904;28;102562;-78
2020/12/15 05:00:25;;;;;;;;;8.00;7.00;;;;;12.31;53.03;98656.63;4834256;28;104034;-78
2020/12/15 05:02:52;;;;;;;;;8.00;7.50;;;;;12.31;53.54;98663.94;4844242;28;102608;-78
2020/12/15 05:05:22;;;;;;;;;8.00;6.75;;;;;12.31;53.33;98666.66;4826383;28;102542;-77
2020/12/15 05:07:49;;;;;;;;;7.50;7.00;;;;;12.29;53.42;98664.13;4838038;28;103570;-76
2020/12/15 05:10:17;;;;;;;;;8.25;7.00;;;;;12.29;53.77;98666.03;4841944;28;104250;-76
2020/12/15 05:12:45;;;;;;;;;8.00;7.00;;;;;12.27;53.43;98666.25;4844118;28;102965;-77
2020/12/15 05:15:18;;;;;;;;;7.50;6.25;;;;;12.27;53.08;98671.66;4838798;28;103411;-77
2020/12/15 05:17:46;;;;;;;;;8.25;8.25;;;;;12.27;53.50;98663.53;4842580;28;104784;-77
2020/12/15 05:20:25;;;;;;;;;9.50;8.00;;;;;12.27;53.16;98663.53;4847175;28;104271;-77
2020/12/15 05:22:52;;;;;;;;;7.75;7.00;;;;;12.27;53.02;98677.09;4838092;28;102663;-77
2020/12/15 05:25:31;;;;;;;;;7.50;7.25;;;;;12.25;53.65;98681.88;4840872;28;102747;-77
2020/12/15 05:28:14;;;;;;;;;9.00;7.75;;;;;12.26;53.27;98686.25;4840956;28;104002;-77
2020/12/15 05:30:41;;;;;;;;;7.50;6.75;;;;;12.28;55.06;98683.34;4842338;28;104134;-77
2020/12/15 05:33:13;;;;;;;;;12.00;7.00;;;;;12.28;54.31;98684.19;4842495;28;103555;-77
2020/12/15 05:35:40;;;;;;;;;9.00;6.50;;;;;12.27;53.61;98679.78;4838722;28;102389;-79
2020/12/15 05:38:07;;;;;;;;;7.00;7.00;;;;;12.26;54.13;98671.88;4831994;28;102759;-79
2020/12/15 05:40:38;;;;;;;;;11.75;8.00;;;;;12.25;54.06;98673.75;4839221;28;104076;-78
2020/12/15 05:43:05;;;;;;;;;9.50;8.50;;;;;12.23;53.65;98675.84;4840999;28;103045;-79
2020/12/15 05:45:34;;;;;;;;;12.25;8.00;;;;;12.23;53.96;98669.59;4846329;28;102529;-78
2020/12/15 05:48:08;;;;;;;;;7.75;7.25;;;;;12.23;53.43;98673.13;4839255;28;102573;-79
2020/12/15 05:50:40;;;;;;;;;10.75;8.75;;;;;12.22;53.83;98673.31;4832308;28;104137;-78
2020/12/15 05:53:08;;;;;;;;;11.50;8.75;;;;;12.21;53.36;98677.06;4841658;28;103678;-79
2020/12/15 05:55:35;;;;;;;;;7.25;7.00;;;;;12.21;53.16;98682.50;4835959;28;103055;-78
2020/12/15 05:58:02;;;;;;;;;8.75;7.25;;;;;12.18;54.05;98681.06;4837486;28;102490;-79
2020/12/15 06:00:30;;;;;;;;;12.00;7.50;;;;;12.19;53.64;98688.16;4837243;28;104150;-79
2020/12/15 06:03:06;;;;;;;;;8.25;7.25;;;;;12.18;53.04;98688.34;4840053;28;102570;-78
2020/12/15 06:05:36;;;;;;;;;11.25;9.25;;;;;12.16;53.21;98672.28;4842952;28;103635;-79
2020/12/15 06:08:04;;;;;;;;;11.25;8.50;;;;;12.18;53.51;98677.50;4838913;28;104291;-79
2020/12/15 06:10:32;;;;;;;;;10.75;8.25;;;;;12.17;53.66;98678.53;4842198;28;104271;-79
2020/12/15 06:13:00;;;;;;;;;8.25;8.00;;;;;12.17;52.84;98681.25;4842024;28;103291;-79
2020/12/15 06:15:27;;;;;;;;;7.25;5.25;;;;;12.16;53.17;98679.59;4843396;28;102494;-78
2020/12/15 06:18:01;;;;;;;;;10.25;9.75;;;;;12.16;53.31;98685.03;4841167;28;103256;-79
2020/12/15 06:20:35;;;;;;;;;12.00;9.50;;;;;12.16;52.89;98680.41;4843005;28;110029;-78
2020/12/15 06:23:12;;;;;;;;;7.75;7.00;;;;;12.14;52.84;98685.22;4840943;28;102684;-78
2020/12/15 06:25:39;;;;;;;;;7.50;5.50;;;;;12.14;53.61;98674.38;4837929;28;102708;-79
2020/12/15 06:28:10;;;;;;;;;6.00;6.00;;;;;12.13;53.12;98670.00;4845773;28;102232;-79
2020/12/15 06:30:41;;;;;;;;;6.75;6.75;;;;;12.12;53.86;98667.50;4841709;28;104094;-79
2020/12/15 06:33:09;;;;;;;;;10.25;7.50;;;;;12.11;53.00;98676.69;4836993;28;102245;-79
2020/12/15 06:35:36;;;;;;;;;7.50;6.75;;;;;12.11;52.97;98673.97;4840210;28;102413;-79
2020/12/15 06:41:34;;;;;;;;;7.00;6.25;;;;;12.09;53.04;98676.88;5263558;23;103074;-77
2020/12/15 06:44:08;;;;;;;;;8.75;6.25;;;;;12.08;53.49;98678.75;4817270;28;102712;-77
2020/12/15 06:46:36;;;;;;;;;6.00;5.00;;;;;12.08;53.66;98672.50;4812465;28;103486;-77
2020/12/15 06:49:09;;;;;;;;;6.75;6.50;;;;;12.07;52.98;98673.53;4808734;28;102582;-77
2020/12/15 06:51:37;;;;;;;;;11.00;8.50;;;;;12.06;53.63;98677.31;4816209;28;104197;-77
2020/12/15 06:54:05;;;;;;;;;7.00;6.75;;;;;12.07;53.60;98670.81;4808843;28;104010;-77
2020/12/15 06:56:33;;;;;;;;;8.50;6.25;;;;;12.06;53.03;98663.75;4811067;28;102614;-77
2020/12/15 06:59:04;;;;;;;;;10.50;6.00;;;;;12.04;53.06;98666.66;4817152;28;102670;-77
2020/12/15 07:01:32;;;;;;;;;10.25;6.50;;;;;12.05;52.81;98664.78;4813161;28;103508;-77
2020/12/15 07:04:03;;;;;;;;;10.75;8.00;;;;;12.05;53.51;98672.94;4813929;28;102182;-77
2020/12/15 07:06:30;;;;;;;;;9.50;6.75;;;;;12.02;53.18;98676.88;4815189;28;102161;-77
2020/12/15 07:09:02;;;;;;;;;10.00;8.50;;;;;12.03;53.12;98673.13;4818790;28;103731;-77
2020/12/15 07:11:30;;;;;;;;;7.00;6.50;;;;;12.02;53.50;98670.66;4811524;28;104206;-77
2020/12/15 07:13:58;;;;;;;;;10.00;8.75;;;;;12.02;53.30;98684.19;4811811;28;102301;-77
2020/12/15 07:16:25;;;;;;;;;8.25;7.50;;;;;12.03;53.68;98688.53;4816155;28;102592;-77
2020/12/15 07:18:52;;;;;;;;;8.50;6.25;;;;;12.01;53.14;98677.94;4817246;28;102238;-77
2020/12/15 07:21:21;;;;;;;;;11.25;8.00;;;;;12.01;52.85;98677.09;4826281;28;108906;-77
2020/12/15 07:23:48;;;;;;;;;9.00;6.50;;;;;12.01;53.04;98682.53;4815450;28;102657;-77
2020/12/15 07:26:16;;;;;;;;;8.00;7.00;;;;;12.01;52.74;98674.38;4813088;28;102837;-79
2020/12/15 07:28:44;;;;;;;;;10.25;7.75;;;;;12.01;53.67;98666.25;4813219;28;102214;-78
2020/12/15 07:31:12;;;;;;;;;7.75;6.25;;;;;12.00;53.59;98678.13;4812945;28;104583;-79
2020/12/15 07:33:41;;;;;;;;;9.00;6.50;;;;;11.99;52.99;98668.34;4817464;28;102275;-78
2020/12/15 07:36:13;;;;;;;;;9.25;8.00;;;;;11.98;52.84;98680.19;4824646;28;103968;-79
2020/12/15 07:38:39;;;;;;;;;6.50;6.00;;;;;11.97;52.90;98670.44;4808863;28;102358;-79
2020/12/15 07:41:15;;;;;;;;;8.75;6.50;;;;;11.97;53.08;98675.84;4789465;28;104077;-78
2020/12/15 07:43:52;;;;;;;;;12.50;7.50;;;;;11.97;53.09;98659.59;4795067;29;102215;-79
2020/12/15 07:46:19;;;;;;;;;8.00;6.50;;;;;11.98;53.24;98672.06;4790899;28;102215;-79
2020/12/15 07:48:46;;;;;;;;;9.50;6.00;;;;;11.97;52.94;98676.69;4809390;29;107723;-78
2020/12/15 07:51:13;;;;;;;;;9.75;6.00;;;;;11.96;53.33;98679.59;4791023;29;103083;-79
2020/12/15 07:53:50;;;;;;;;;6.25;6.00;;;;;11.96;52.75;98685.84;4786478;29;102233;-78
2020/12/15 07:56:25;;;;;;;;;9.25;7.25;;;;;11.95;52.67;98686.06;4793625;29;102153;-77
2020/12/15 07:58:58;;;;;;;;;6.25;5.00;;;;;11.96;53.38;98695.84;4790006;29;102248;-77
2020/12/15 08:01:29;;;;;;;;;11.50;7.25;;;;;11.95;52.96;98694.19;4811644;28;104046;-77
2020/12/15 08:04:13;;;;;;;;;7.75;7.75;;;;;11.94;53.00;98689.78;4786972;29;102447;-77
2020/12/15 08:06:46;;;;;;;;;6.25;6.25;;;;;11.94;52.84;98696.06;4787555;29;103203;-77
2020/12/15 08:09:16;;;;;;;;;7.00;6.00;;;;;11.94;52.82;98687.91;4809530;28;103048;-77
2020/12/15 08:11:44;;;;;;;;;6.50;5.50;;;;;11.94;52.81;98692.50;4792136;28;104041;-77
2020/12/15 08:14:12;;;;;;;;;7.50;7.00;;;;;11.93;52.99;98691.66;4791234;29;103658;-77
2020/12/15 08:16:39;;;;;;;;;7.00;6.25;;;;;11.93;53.20;98686.25;4790637;29;102075;-77
2020/12/15 08:19:06;;;;;;;;;11.00;8.00;;;;;11.93;53.19;98693.56;4794352;29;102659;-77
2020/12/15 08:21:46;;;;;;;;;9.50;8.25;;;;;11.91;53.42;98693.75;4787093;28;103825;-77
2020/12/15 08:24:14;;;;;;;;;9.75;6.00;;;;;11.91;52.96;98690.22;4791379;28;102122;-77
2020/12/15 08:26:41;;;;;;;;;7.00;6.50;;;;;11.91;53.28;98693.75;4796168;29;102159;-77
2020/12/15 08:29:12;;;;;;;;;8.25;7.00;;;;;11.91;53.49;98693.75;4806852;29;102480;-77
2020/12/15 08:31:40;;;;;;;;;8.00;6.25;;;;;11.91;53.04;98688.34;4813878;29;104208;-77
2020/12/15 08:34:17;;;;;;;;;12.25;7.75;;;;;11.90;52.59;98681.25;4813539;29;108269;-77
2020/12/15 08:36:48;;;;;;;;;8.25;7.00;;;;;11.89;53.30;98689.56;4692027;29;103798;-77
2020/12/15 08:39:19;;;;;;;;;8.75;7.00;;;;;11.91;52.66;98687.50;4724115;29;102369;-77
2020/12/15 08:41:47;;;;;;;;;6.50;6.25;;;;;11.92;52.83;98705.44;4790240;28;104309;-77
2020/12/15 08:44:16;;;;;;;;;7.00;6.00;;;;;11.91;52.65;98709.19;4791731;28;102404;-77
2020/12/15 08:46:42;;;;;;;;;8.75;6.50;;;;;11.91;52.58;98717.31;4801555;28;102234;-77
2020/12/15 08:49:13;;;;;;;;;7.25;5.25;;;;;11.90;53.24;98716.47;4799481;28;103223;-77
2020/12/15 08:51:44;;;;;;;;;11.25;7.00;;;;;11.90;52.98;98718.34;4797867;28;104027;-77
2020/12/15 08:54:12;;;;;;;;;7.75;7.75;;;;;11.89;52.40;98706.69;4789992;28;102789;-78
2020/12/15 08:56:39;;;;;;;;;7.75;6.75;;;;;11.89;53.10;98716.66;4799774;28;102162;-79
2020/12/15 08:59:09;;;;;;;;;7.75;6.75;;;;;11.89;52.89;98708.53;4797742;28;103901;-78
2020/12/15 09:01:36;;;;;;;;;12.00;7.00;;;;;11.89;52.99;98700.41;4797450;29;104072;-78
2020/12/15 09:04:03;;;;;;;;;7.25;7.00;;;;;11.90;52.65;98699.38;4801548;28;102157;-79
2020/12/15 09:06:40;;;;;;;;;10.00;7.50;;;;;11.91;52.88;98698.34;4798759;28;102450;-79
2020/12/15 09:09:06;;;;;;;;;4.50;4.00;;;;;11.91;52.79;98701.06;4796038;28;104060;-79
2020/12/15 09:11:33;;;;;;;;;7.00;7.00;;;;;11.90;53.20;98704.81;4791639;29;104047;-79
2020/12/15 09:14:02;;;;;;;;;9.00;7.50;;;;;11.89;52.76;98693.13;4800363;28;102184;-79
2020/12/15 09:16:37;;;;;;;;;7.75;6.25;;;;;11.90;52.67;98699.38;4796336;28;102274;-79
2020/12/15 09:19:14;;;;;;;;;12.25;8.50;;;;;11.90;52.57;98696.66;4796561;28;102113;-78
2020/12/15 09:21:41;;;;;;;;;10.25;7.25;;;;;11.90;52.60;98702.09;4803052;28;104151;-79
2020/12/15 09:24:09;;;;;;;;;9.00;6.75;;;;;11.89;53.33;98678.75;4795520;28;102280;-79
2020/12/15 09:26:37;;;;;;;;;6.75;6.00;;;;;11.89;53.02;98678.75;4796348;29;102594;-77
2020/12/15 09:29:08;;;;;;;;;7.00;6.25;;;;;11.89;52.51;98684.16;4800130;28;103196;-77
2020/12/15 09:31:35;;;;;;;;;6.50;6.50;;;;;11.91;52.64;98687.50;4798525;28;108490;-77
2020/12/15 09:34:02;;;;;;;;;5.75;5.50;;;;;11.90;53.14;98694.81;4798665;28;102180;-77
2020/12/15 09:36:29;;;;;;;;;11.00;7.00;;;;;11.92;52.46;98697.31;4796735;28;107757;-77
2020/12/15 09:38:55;;;;;;;;;11.25;7.00;;;;;11.93;52.71;98691.66;4799449;28;103109;-77
2020/12/15 09:41:22;;;;;;;;;7.00;7.00;;;;;11.93;52.50;98683.53;4795120;28;104585;-77
2020/12/15 09:43:49;;;;;;;;;9.50;7.00;;;;;11.93;52.64;98686.25;4790601;28;102180;-77
2020/12/15 09:46:15;;;;;;;;;8.25;7.00;;;;;11.94;52.94;98687.09;4814355;28;102292;-77
2020/12/15 09:48:42;;;;;;;;;7.00;6.00;;;;;11.94;52.66;98692.50;4796329;28;103637;-77
2020/12/15 09:51:12;;;;;;;;;11.00;7.50;;;;;11.95;52.43;98688.75;4793984;29;104194;-77
2020/12/15 09:53:39;;;;;;;;;10.50;7.75;;;;;11.94;52.74;98676.25;4798047;29;102132;-77
2020/12/15 09:56:06;;;;;;;;;8.00;7.25;;;;;11.93;52.83;98680.03;4797076;28;102357;-78
2020/12/15 09:58:45;;;;;;;;;7.50;7.00;;;;;11.95;52.92;98680.63;4798187;28;102467;-79
2020/12/15 10:01:19;;;;;;;;;6.75;5.50;;;;;11.94;52.25;98679.78;4796159;28;104222;-79
2020/12/15 10:03:46;;;;;;;;;8.00;7.50;;;;;11.95;52.22;98694.19;4799684;28;102244;-79
2020/12/15 10:06:16;;;;;;;;;9.00;7.25;;;;;11.95;53.12;98695.03;4792306;28;102168;-79
2020/12/15 10:08:44;;;;;;;;;8.75;6.75;;;;;11.95;52.54;98689.59;4809205;28;102363;-78
2020/12/15 10:11:14;;;;;;;;;8.00;8.00;;;;;11.94;52.76;98690.63;4800071;29;103990;-79
2020/12/15 10:13:41;;;;;;;;;7.25;6.25;;;;;11.94;52.74;98695.22;4797477;28;103779;-79
2020/12/15 10:16:09;;;;;;;;;8.00;6.25;;;;;11.95;52.43;98694.19;4794314;28;103796;-79
2020/12/15 10:18:37;;;;;;;;;9.75;8.00;;;;;11.94;52.40;98695.22;4799511;29;104251;-78
2020/12/15 10:21:03;;;;;;;;;9.75;7.75;;;;;11.95;52.56;98688.75;4816916;28;104024;-79
2020/12/15 10:23:33;;;;;;;;;10.75;8.00;;;;;11.94;52.46;98687.09;4796515;28;102335;-79
2020/12/15 10:26:00;;;;;;;;;7.00;5.75;;;;;11.94;52.66;98687.09;4795888;28;102429;-79
2020/12/15 10:28:27;;;;;;;;;10.25;9.00;;;;;11.93;52.31;98683.53;4799838;29;102588;-79
2020/12/15 10:30:54;;;;;;;;;6.25;5.25;;;;;11.94;52.27;98679.78;4796474;28;104075;-78
2020/12/15 10:33:20;;;;;;;;;9.75;8.25;;;;;11.94;52.02;98681.66;4796324;29;102545;-79
2020/12/15 10:36:01;;;;;;;;;9.75;7.00;;;;;11.94;52.47;98676.25;4797291;29;102995;-78
2020/12/15 10:38:28;;;;;;;;;12.25;10.00;;;;;11.95;52.59;98667.09;4801623;28;102569;-78
2020/12/15 10:40:57;;;;;;;;;9.75;6.75;;;;;11.96;52.67;98682.31;4793540;28;104061;-79
2020/12/15 10:43:24;;;;;;;;;12.00;10.25;;;;;11.96;52.60;98687.72;4794847;28;102954;-79
2020/12/15 10:45:51;;;;;;;;;8.25;7.00;;;;;11.94;52.01;98690.63;4794020;28;102121;-79
2020/12/15 10:48:18;;;;;;;;;8.00;7.00;;;;;11.96;52.27;98690.44;4797536;28;102680;-79
2020/12/15 10:50:45;;;;;;;;;14.25;11.25;;;;;11.94;52.61;98684.38;4791545;28;104209;-79
2020/12/15 10:53:12;;;;;;;;;7.25;7.00;;;;;11.94;52.51;98681.66;4797490;29;102050;-78
2020/12/15 10:55:38;;;;;;;;;10.00;8.00;;;;;11.95;52.45;98672.50;4794633;29;103574;-79
2020/12/15 10:58:05;;;;;;;;;9.75;7.00;;;;;11.94;52.40;98670.81;4798758;29;102163;-79
2020/12/15 11:00:32;;;;;;;;;8.25;8.25;;;;;11.93;52.83;98661.84;4808666;28;108822;-79
2020/12/15 11:02:59;;;;;;;;;10.75;8.50;;;;;11.95;52.04;98656.25;4797012;29;102667;-79
2020/12/15 11:05:26;;;;;;;;;11.75;7.50;;;;;11.95;52.29;98656.25;4794384;29;102309;-78
2020/12/15 11:07:52;;;;;;;;;12.00;11.00;;;;;11.95;52.64;98645.41;4798041;29;102713;-79
2020/12/15 11:10:19;;;;;;;;;7.50;6.50;;;;;11.96;52.37;98650.63;4799023;29;104072;-79
2020/12/15 11:12:46;;;;;;;;;11.00;11.00;;;;;11.97;52.43;98648.75;4795164;29;102291;-79
2020/12/15 11:15:13;;;;;;;;;14.00;10.75;;;;;11.96;52.70;98647.06;4795795;29;102329;-79
2020/12/15 11:17:39;;;;;;;;;15.25;9.50;;;;;11.95;51.94;98648.13;4798108;28;102686;-78
2020/12/15 11:20:06;;;;;;;;;7.75;7.75;;;;;11.96;52.54;98652.50;4798576;29;104057;-79
2020/12/15 11:22:33;;;;;;;;;13.25;10.75;;;;;11.97;52.78;98648.75;4795939;29;102423;-79
2020/12/15 11:25:00;;;;;;;;;11.00;10.50;;;;;11.96;52.40;98641.66;4796383;28;102379;-77
2020/12/15 11:27:27;;;;;;;;;10.00;8.00;;;;;11.97;52.39;98643.34;4799943;28;102592;-77
2020/12/15 11:29:54;;;;;;;;;11.50;9.25;;;;;11.97;52.24;98648.75;4794493;29;104067;-77